createdAt,value
2022-09-28T00:00:44.311Z,99337.47
2022-09-28T00:03:11.460Z,99338.69
2022-09-28T00:05:38.665Z,99341.25
2022-09-28T00:08:05.805Z,99341.25
2022-09-28T00:10:32.858Z,99338.44
2022-09-28T00:13:01.413Z,99338.78
2022-09-28T00:15:29.198Z,99331.59
2022-09-28T00:17:56.312Z,99334.38
2022-09-28T00:20:23.448Z,99332.00
2022-09-28T00:22:50.608Z,99341.53
2022-09-28T00:25:17.843Z,99339.88
2022-09-28T00:27:49.471Z,99345.53
2022-09-28T00:30:16.671Z,99344.22
2022-09-28T00:33:09.644Z,99338.38
2022-09-28T00:35:36.731Z,99344.41
2022-09-28T00:38:03.925Z,99349.13
2022-09-28T00:40:31.136Z,99353.44
2022-09-28T00:42:58.260Z,99338.91
2022-09-28T00:45:26.160Z,99339.25
2022-09-28T00:47:58.342Z,99334.47
2022-09-28T00:50:34.092Z,99340.69
2022-09-28T00:53:05.106Z,99333.78
2022-09-28T00:55:32.187Z,99344.16
2022-09-28T00:58:01.380Z,99343.47
2022-09-28T01:00:28.657Z,99339.81
2022-09-28T01:02:56.291Z,99342.44
2022-09-28T01:05:24.233Z,99340.03
2022-09-28T01:07:51.581Z,99329.56
2022-09-28T01:10:18.753Z,99327.19
2022-09-28T01:12:45.881Z,99321.53
2022-09-28T01:15:14.717Z,99314.84
2022-09-28T01:17:42.798Z,99310.03
2022-09-28T01:20:33.770Z,99313.31
2022-09-28T01:23:19.174Z,99308.63
2022-09-28T01:25:51.994Z,99301.66
2022-09-28T01:28:20.730Z,99316.47
2022-09-28T01:31:06.642Z,99314.34
2022-09-28T01:33:57.053Z,99312.31
2022-09-28T01:36:30.317Z,99324.97
2022-09-28T01:39:02.474Z,99323.25
2022-09-28T01:41:30.418Z,99329.84
2022-09-28T01:44:02.883Z,99325.47
2022-09-28T01:46:37.200Z,99326.44
2022-09-28T01:49:24.607Z,99332.19
2022-09-28T01:51:55.433Z,99335.44
2022-09-28T01:54:34.438Z,99331.91
2022-09-28T01:57:08.797Z,99328.34
2022-09-28T01:59:38.466Z,99328.16
2022-09-28T02:02:18.741Z,99330.06
2022-09-28T02:04:49.579Z,99334.84
2022-09-28T02:07:21.419Z,99325.00
2022-09-28T02:09:55.832Z,99317.84
2022-09-28T02:12:43.600Z,99319.41
2022-09-28T02:15:15.018Z,99325.03
2022-09-28T02:17:42.720Z,99327.00
2022-09-28T02:20:13.133Z,99330.06
2022-09-28T02:22:51.515Z,99324.22
2022-09-28T02:25:52.227Z,99326.00
2022-09-28T02:28:21.037Z,99315.19
2022-09-28T02:30:50.200Z,99318.44
2022-09-28T02:33:20.431Z,99321.06
2022-09-28T02:35:47.735Z,99320.38
2022-09-28T02:38:15.500Z,99318.69
2022-09-28T02:40:46.015Z,99322.31
2022-09-28T02:43:16.223Z,99317.06
2022-09-28T02:46:15.887Z,99311.41
2022-09-28T02:49:04.941Z,99317.16
2022-09-28T02:52:01.041Z,99314.38
2022-09-28T02:54:41.927Z,99304.25
2022-09-28T02:57:18.658Z,99312.09
2022-09-28T02:59:54.067Z,99323.34
2022-09-28T03:02:46.701Z,99335.69
2022-09-28T03:05:13.796Z,99337.50
2022-09-28T03:07:48.641Z,99330.25
2022-09-28T03:10:39.038Z,99329.00
2022-09-28T03:13:06.389Z,99325.09
2022-09-28T03:15:35.470Z,99316.66
2022-09-28T03:18:02.658Z,99311.69
2022-09-28T03:20:30.413Z,99310.28
2022-09-28T03:23:22.891Z,99314.19
2022-09-28T03:25:44.589Z,99319.16
2022-09-28T03:28:11.735Z,99313.63
2022-09-28T03:30:43.043Z,99313.59
2022-09-28T03:33:11.169Z,99314.94
2022-09-28T03:35:38.880Z,99307.88
2022-09-28T03:38:06.009Z,99307.56
2022-09-28T03:40:35.710Z,99309.44
2022-09-28T03:43:02.897Z,99296.91
2022-09-28T03:45:30.110Z,99304.06
2022-09-28T03:47:57.705Z,99308.97
2022-09-28T03:50:24.817Z,99307.25
2022-09-28T03:52:51.932Z,99313.47
2022-09-28T03:55:19.076Z,99310.78
2022-09-28T03:57:52.609Z,99322.09
2022-09-28T04:00:19.857Z,99322.22
2022-09-28T04:02:46.941Z,99308.63
2022-09-28T04:05:14.048Z,99310.34
2022-09-28T04:07:41.161Z,99305.94
2022-09-28T04:10:08.595Z,99302.63
2022-09-28T04:12:35.703Z,99300.78
2022-09-28T04:15:02.985Z,99304.81
2022-09-28T04:17:48.620Z,99298.13
2022-09-28T04:20:33.253Z,99300.31
2022-09-28T04:23:03.796Z,99296.00
2022-09-28T04:25:31.293Z,99298.56
2022-09-28T04:28:17.241Z,99291.13
2022-09-28T04:30:46.290Z,99292.47
2022-09-28T04:33:13.460Z,99285.88
2022-09-28T04:35:40.548Z,99285.09
2022-09-28T04:38:07.656Z,99290.19
2022-09-28T04:40:35.883Z,99294.59
2022-09-28T04:43:03.047Z,99280.44
2022-09-28T04:45:31.246Z,99281.41
2022-09-28T04:48:06.230Z,99279.78
2022-09-28T04:51:11.504Z,99290.75
2022-09-28T04:53:38.626Z,99299.75
2022-09-28T04:56:07.269Z,99294.59
2022-09-28T04:58:35.545Z,99292.34
2022-09-28T05:01:05.309Z,99297.91
2022-09-28T05:03:58.441Z,99295.88
2022-09-28T05:06:45.841Z,99286.94
2022-09-28T05:09:13.604Z,99281.47
2022-09-28T05:11:41.973Z,99286.50
2022-09-28T05:14:14.593Z,99298.94
2022-09-28T05:16:42.257Z,99298.41
2022-09-28T05:19:21.464Z,99299.34
2022-09-28T05:21:49.853Z,99299.25
2022-09-28T05:24:16.937Z,99303.75
2022-09-28T05:26:49.539Z,99300.13
2022-09-28T05:29:17.210Z,99299.69
2022-09-28T05:31:53.443Z,99295.50
2022-09-28T05:34:39.758Z,99301.72
2022-09-28T05:37:07.086Z,99297.22
2022-09-28T05:39:34.580Z,99296.25
2022-09-28T05:42:01.701Z,99294.44
2022-09-28T05:44:29.673Z,99297.97
2022-09-28T05:46:57.184Z,99294.53
2022-09-28T05:49:24.373Z,99300.13
2022-09-28T05:51:51.519Z,99297.09
2022-09-28T05:54:18.796Z,99298.31
2022-09-28T05:56:47.182Z,99296.72
2022-09-28T05:59:14.577Z,99287.41
2022-09-28T06:01:42.125Z,99293.16
2022-09-28T06:04:11.127Z,99294.47
2022-09-28T06:06:38.830Z,99298.19
2022-09-28T06:09:05.982Z,99295.66
2022-09-28T06:11:54.311Z,99292.59
2022-09-28T06:14:31.097Z,99294.22
2022-09-28T06:16:58.309Z,99294.88
2022-09-28T06:19:25.409Z,99296.50
2022-09-28T06:22:11.473Z,99285.38
2022-09-28T06:24:45.501Z,99282.91
2022-09-28T06:27:12.661Z,99291.91
2022-09-28T06:32:24.483Z,99289.97
2022-09-28T06:34:56.165Z,99290.94
2022-09-28T06:37:44.673Z,99287.72
2022-09-28T06:40:11.786Z,99288.19
2022-09-28T06:42:38.908Z,99276.84
2022-09-28T06:45:30.296Z,99283.69
2022-09-28T06:48:10.441Z,99275.78
2022-09-28T06:50:42.149Z,99284.53
2022-09-28T06:53:29.065Z,99273.06
2022-09-28T06:56:10.430Z,99280.69
2022-09-28T06:58:37.804Z,99275.78
2022-09-28T07:01:05.740Z,99271.78
2022-09-28T07:03:56.609Z,99265.78
2022-09-28T07:06:46.810Z,99268.03
2022-09-28T07:09:49.513Z,99259.75
2022-09-28T07:12:36.238Z,99260.19
2022-09-28T07:15:12.302Z,99260.41
2022-09-28T07:17:53.290Z,99265.34
2022-09-28T07:20:25.671Z,99262.56
2022-09-28T07:22:53.941Z,99255.69
2022-09-28T07:25:23.090Z,99264.41
2022-09-28T07:28:09.447Z,99258.69
2022-09-28T07:31:10.334Z,99262.97
2022-09-28T07:33:55.336Z,99259.75
2022-09-28T07:36:39.507Z,99261.06
2022-09-28T07:39:06.725Z,99263.22
2022-09-28T07:41:34.164Z,99273.19
2022-09-28T07:44:07.093Z,99272.47
2022-09-28T07:46:37.052Z,99272.00
2022-09-28T07:49:36.384Z,99266.31
2022-09-28T07:52:28.499Z,99269.84
2022-09-28T07:55:07.852Z,99270.16
2022-09-28T07:57:48.112Z,99276.66
2022-09-28T08:00:23.971Z,99276.84
2022-09-28T08:02:51.504Z,99279.88
2022-09-28T08:05:22.701Z,99284.59
2022-09-28T08:07:49.943Z,99286.25
2022-09-28T08:10:17.923Z,99290.66
2022-09-28T08:12:47.172Z,99285.19
2022-09-28T08:15:29.577Z,99285.06
2022-09-28T08:18:09.483Z,99282.88
2022-09-28T08:20:56.233Z,99287.41
2022-09-28T08:23:23.924Z,99283.84
2022-09-28T08:25:54.192Z,99285.91
2022-09-28T08:28:24.014Z,99283.59
2022-09-28T08:30:54.445Z,99280.84
2022-09-28T08:34:05.445Z,99280.22
2022-09-28T08:36:52.962Z,99284.25
2022-09-28T08:39:38.771Z,99286.31
2022-09-28T08:42:40.897Z,99281.91
2022-09-28T08:45:36.391Z,99279.19
2022-09-28T08:48:34.121Z,99282.91
2022-09-28T08:51:22.026Z,99282.47
2022-09-28T08:54:11.089Z,99295.06
2022-09-28T08:56:55.261Z,99289.28
2022-09-28T08:59:24.765Z,99288.44
2022-09-28T09:02:03.665Z,99288.81
2022-09-28T09:04:32.868Z,99292.06
2022-09-28T09:07:07.129Z,99302.97
2022-09-28T09:09:44.128Z,99291.81
2022-09-28T09:12:19.333Z,99289.31
2022-09-28T09:15:02.643Z,99296.34
2022-09-28T09:17:50.308Z,99288.38
2022-09-28T09:20:31.829Z,99288.91
2022-09-28T09:23:28.427Z,99270.63
2022-09-28T09:25:59.962Z,99284.41
2022-09-28T09:28:33.184Z,99267.94
2022-09-28T09:31:27.154Z,99274.41
2022-09-28T09:34:16.330Z,99266.84
2022-09-28T09:37:06.838Z,99266.47
2022-09-28T09:40:02.280Z,99264.47
2022-09-28T09:42:54.191Z,99259.00
2022-09-28T09:45:45.664Z,99264.06
2022-09-28T09:48:38.931Z,99260.16
2022-09-28T09:51:16.625Z,99256.22
2022-09-28T09:53:48.696Z,99257.28
2022-09-28T09:56:24.226Z,99248.94
2022-09-28T09:59:08.187Z,99249.28
2022-09-28T10:01:55.973Z,99256.53
2022-09-28T10:04:50.192Z,99249.00
2022-09-28T10:07:24.692Z,99242.75
2022-09-28T10:09:55.743Z,99235.88
2022-09-28T10:12:43.091Z,99235.94
2022-09-28T10:15:15.104Z,99243.25
2022-09-28T10:17:52.668Z,99240.13
2022-09-28T10:20:39.735Z,99236.94
2022-09-28T10:23:23.153Z,99235.81
2022-09-28T10:25:52.515Z,99234.44
2022-09-28T10:28:26.104Z,99242.03
2022-09-28T10:30:53.459Z,99249.44
2022-09-28T10:33:33.956Z,99244.13
2022-09-28T10:36:04.940Z,99232.88
2022-09-28T10:38:33.125Z,99243.53
2022-09-28T10:41:16.674Z,99234.25
2022-09-28T10:44:06.803Z,99235.72
2022-09-28T10:47:05.545Z,99232.66
2022-09-28T10:49:46.522Z,99231.28
2022-09-28T10:52:29.428Z,99240.13
2022-09-28T10:54:56.821Z,99227.34
2022-09-28T10:57:35.042Z,99228.13
2022-09-28T11:00:07.247Z,99225.34
2022-09-28T11:02:41.360Z,99222.13
2022-09-28T11:05:24.491Z,99229.03
2022-09-28T11:07:57.945Z,99227.53
2022-09-28T11:10:32.876Z,99223.09
2022-09-28T11:13:10.457Z,99220.16
2022-09-28T11:15:42.273Z,99204.34
2022-09-28T11:18:20.028Z,99205.97
2022-09-28T11:20:47.229Z,99198.91
2022-09-28T11:23:22.446Z,99193.69
2022-09-28T11:25:58.369Z,99187.94
2022-09-28T11:28:29.378Z,99193.47
2022-09-28T11:30:57.378Z,99194.44
2022-09-28T11:33:31.342Z,99188.19
2022-09-28T11:36:44.199Z,99182.84
2022-09-28T11:39:14.026Z,99183.06
2022-09-28T11:42:06.464Z,99192.66
2022-09-28T11:44:39.165Z,99177.75
2022-09-28T11:47:09.487Z,99173.22
2022-09-28T11:49:41.556Z,99176.38
2022-09-28T11:52:14.561Z,99167.22
2022-09-28T11:54:44.281Z,99165.94
2022-09-28T11:57:14.892Z,99164.22
2022-09-28T12:00:02.326Z,99165.03
2022-09-28T12:02:37.221Z,99163.41
2022-09-28T12:05:17.104Z,99153.34
2022-09-28T12:07:53.108Z,99149.97
2022-09-28T12:10:47.527Z,99153.38
2022-09-28T12:13:20.535Z,99141.13
2022-09-28T12:16:32.606Z,99146.22
2022-09-28T12:18:57.044Z,99152.09
2022-09-28T12:21:33.460Z,99149.09
2022-09-28T12:24:03.791Z,99149.81
2022-09-28T12:26:42.120Z,99148.31
2022-09-28T12:29:15.644Z,99138.03
2022-09-28T12:32:02.754Z,99135.34
2022-09-28T12:34:29.926Z,99132.19
2022-09-28T12:37:06.170Z,99130.25
2022-09-28T12:39:56.374Z,99136.50
2022-09-28T12:42:35.744Z,99133.00
2022-09-28T12:45:11.260Z,99130.06
2022-09-28T12:48:05.032Z,99128.31
2022-09-28T12:50:52.607Z,99130.97
2022-09-28T12:53:41.816Z,99130.97
2022-09-28T12:56:21.560Z,99128.75
2022-09-28T12:59:10.571Z,99128.47
2022-09-28T13:01:43.676Z,99127.50
2022-09-28T13:04:35.120Z,99125.50
2022-09-28T13:07:08.028Z,99128.91
2022-09-28T13:09:54.028Z,99123.94
2022-09-28T13:12:26.070Z,99125.47
2022-09-28T13:15:27.426Z,99122.06
2022-09-28T13:18:03.778Z,99121.91
2022-09-28T13:20:37.820Z,99120.94
2022-09-28T13:23:08.041Z,99111.84
2022-09-28T13:25:36.367Z,99121.94
2022-09-28T13:28:05.067Z,99113.81
2022-09-28T13:30:38.602Z,99108.31
2022-09-28T13:33:07.426Z,99103.91
2022-09-28T13:35:35.093Z,99104.91
2022-09-28T13:38:17.575Z,99103.78
2022-09-28T13:41:03.342Z,99103.00
2022-09-28T13:43:39.880Z,99100.88
2022-09-28T13:46:12.937Z,99083.81
2022-09-28T13:48:50.786Z,99088.94
2022-09-28T13:51:31.730Z,99087.28
2022-09-28T13:54:01.576Z,99086.69
2022-09-28T13:56:28.689Z,99077.47
2022-09-28T13:59:00.749Z,99081.31
2022-09-28T14:01:37.248Z,99078.75
2022-09-28T14:04:18.497Z,99082.44
2022-09-28T14:07:04.749Z,99073.34
2022-09-28T14:09:47.574Z,99067.72
2022-09-28T14:12:33.140Z,99066.94
2022-09-28T14:15:00.901Z,99067.38
2022-09-28T14:17:28.162Z,99061.28
2022-09-28T14:19:59.260Z,99061.31
2022-09-28T14:22:32.481Z,99060.28
2022-09-28T14:25:02.941Z,99072.13
2022-09-28T14:27:30.144Z,99076.63
2022-09-28T14:30:06.589Z,99071.22
2022-09-28T14:32:36.993Z,99069.69
2022-09-28T14:35:18.726Z,99070.38
2022-09-28T14:38:07.484Z,99082.75
2022-09-28T14:41:09.503Z,99081.75
2022-09-28T14:43:39.738Z,99074.78
2022-09-28T14:46:17.246Z,99083.88
2022-09-28T14:48:48.063Z,99070.38
2022-09-28T14:51:27.205Z,99063.97
2022-09-28T14:53:56.485Z,99059.69
2022-09-28T14:56:23.965Z,99063.09
2022-09-28T14:58:53.468Z,99056.84
2022-09-28T15:01:21.774Z,99065.50
2022-09-28T15:03:51.207Z,99075.97
2022-09-28T15:06:19.765Z,99066.91
2022-09-28T15:08:47.191Z,99063.78
2022-09-28T15:11:20.079Z,99070.88
2022-09-28T15:13:47.294Z,99060.22
2022-09-28T15:16:16.632Z,99060.63
2022-09-28T15:19:02.682Z,99062.34
2022-09-28T15:21:37.213Z,99061.19
2022-09-28T15:24:23.548Z,99064.78
2022-09-28T15:26:50.719Z,99062.22
2022-09-28T15:29:19.533Z,99053.53
2022-09-28T15:31:49.971Z,99049.41
2022-09-28T15:34:50.795Z,99043.00
2022-09-28T15:37:22.847Z,99046.72
2022-09-28T15:39:51.538Z,99042.97
2022-09-28T15:42:18.982Z,99045.38
2022-09-28T15:45:01.263Z,99046.69
2022-09-28T15:47:29.417Z,99053.50
2022-09-28T15:49:59.195Z,99047.84
2022-09-28T15:52:45.188Z,99055.19
2022-09-28T15:55:20.947Z,99052.47
2022-09-28T15:57:48.787Z,99056.13
2022-09-28T16:00:29.560Z,99051.16
2022-09-28T16:03:01.424Z,99052.31
2022-09-28T16:05:48.903Z,99050.72
2022-09-28T16:08:26.229Z,99059.38
2022-09-28T16:10:56.357Z,99064.22
2022-09-28T16:13:24.321Z,99062.28
2022-09-28T16:15:59.678Z,99059.25
2022-09-28T16:18:28.140Z,99054.03
2022-09-28T16:20:56.935Z,99054.16
2022-09-28T16:23:31.044Z,99048.44
2022-09-28T16:26:00.445Z,99041.56
2022-09-28T16:28:48.987Z,99040.97
2022-09-28T16:31:19.248Z,99035.78
2022-09-28T16:34:01.285Z,99040.41
2022-09-28T16:36:38.710Z,99049.75
2022-09-28T16:39:05.865Z,99057.13
2022-09-28T16:41:32.980Z,99048.31
2022-09-28T16:44:02.126Z,99048.19
2022-09-28T16:46:36.346Z,99047.19
2022-09-28T16:49:05.926Z,99040.78
2022-09-28T16:51:33.706Z,99046.97
2022-09-28T16:54:30.882Z,99056.03
2022-09-28T16:56:58.183Z,99053.16
2022-09-28T16:59:25.288Z,99050.00
2022-09-28T17:01:52.479Z,99044.47
2022-09-28T17:04:19.693Z,99031.94
2022-09-28T17:06:46.841Z,99028.81
2022-09-28T17:09:14.100Z,99022.13
2022-09-28T17:11:41.291Z,99026.34
2022-09-28T17:14:08.914Z,99026.63
2022-09-28T17:17:02.616Z,99027.59
2022-09-28T17:19:24.488Z,99031.66
2022-09-28T17:21:52.465Z,99026.66
2022-09-28T17:24:20.314Z,99028.50
2022-09-28T17:26:49.161Z,99033.16
2022-09-28T17:29:16.323Z,99040.66
2022-09-28T17:31:43.858Z,99033.31
2022-09-28T17:34:11.688Z,99037.00
2022-09-28T17:36:40.685Z,99033.72
2022-09-28T17:39:15.154Z,99018.97
2022-09-28T17:41:42.291Z,99022.38
2022-09-28T17:44:09.490Z,99028.31
2022-09-28T17:46:38.700Z,99025.66
2022-09-28T17:49:06.761Z,99024.22
2022-09-28T17:51:37.411Z,99027.19
2022-09-28T17:54:06.043Z,99030.25
2022-09-28T17:56:33.646Z,99037.03
2022-09-28T17:59:03.041Z,99038.81
2022-09-28T18:01:34.147Z,99035.41
2022-09-28T18:04:05.445Z,99039.97
2022-09-28T18:06:33.837Z,99038.19
2022-09-28T18:09:03.056Z,99042.59
2022-09-28T18:11:30.446Z,99030.09
2022-09-28T18:13:57.580Z,99032.28
2022-09-28T18:16:26.107Z,99043.78
2022-09-28T18:18:53.241Z,99034.84
2022-09-28T18:21:20.381Z,99030.31
2022-09-28T18:23:47.476Z,99024.63
2022-09-28T18:26:15.219Z,99033.06
2022-09-28T18:28:42.412Z,99030.09
2022-09-28T18:31:10.874Z,99032.03
2022-09-28T18:33:38.489Z,99031.59
2022-09-28T18:36:05.847Z,99035.00
2022-09-28T18:38:36.224Z,99036.13
2022-09-28T18:41:08.498Z,99032.50
2022-09-28T18:43:36.511Z,99036.44
2022-09-28T18:46:10.827Z,99041.22
2022-09-28T18:48:38.218Z,99036.31
2022-09-28T18:51:08.052Z,99031.19
2022-09-28T18:53:35.440Z,99035.50
2022-09-28T18:56:07.861Z,99025.13
2022-09-28T18:58:38.450Z,99024.19
2022-09-28T19:01:28.339Z,99021.59
2022-09-28T19:03:53.915Z,99022.94
2022-09-28T19:06:21.192Z,99023.56
2022-09-28T19:08:51.974Z,99020.78
2022-09-28T19:11:19.081Z,99029.72
2022-09-28T19:13:46.133Z,99022.41
2022-09-28T19:16:15.943Z,99025.69
2022-09-28T19:18:43.803Z,99026.94
2022-09-28T19:21:12.139Z,99029.94
2022-09-28T19:23:39.606Z,99026.19
2022-09-28T19:26:08.230Z,99025.94
2022-09-28T19:28:35.648Z,99024.50
2022-09-28T19:31:04.001Z,99023.66
2022-09-28T19:33:31.178Z,99031.00
2022-09-28T19:36:02.561Z,99024.75
2022-09-28T19:38:33.671Z,99028.78
2022-09-28T19:41:01.187Z,99023.66
2022-09-28T19:43:28.354Z,99032.75
2022-09-28T19:45:55.990Z,99047.44
2022-09-28T19:48:26.750Z,99032.53
2022-09-28T19:50:56.344Z,99025.91
2022-09-28T19:53:23.661Z,99027.97
2022-09-28T19:55:52.325Z,99036.56
2022-09-28T19:58:20.249Z,99029.81
2022-09-28T20:00:47.442Z,99035.69
2022-09-28T20:03:14.577Z,99034.97
2022-09-28T20:05:42.457Z,99033.72
2022-09-28T20:08:09.757Z,99034.38
2022-09-28T20:10:36.887Z,99035.94
2022-09-28T20:13:04.106Z,99029.47
2022-09-28T20:15:31.384Z,99026.50
2022-09-28T20:17:58.729Z,99022.69
2022-09-28T20:20:28.765Z,99012.06
2022-09-28T20:22:55.889Z,99014.63
2022-09-28T20:25:23.265Z,99003.09
2022-09-28T20:27:50.364Z,98994.56
2022-09-28T20:30:17.482Z,98999.22
2022-09-28T20:32:49.276Z,99001.44
2022-09-28T20:35:26.093Z,98995.31
2022-09-28T20:38:07.928Z,99002.16
2022-09-28T20:40:39.504Z,99001.91
2022-09-28T20:43:07.211Z,99001.56
2022-09-28T20:45:37.549Z,98991.66
2022-09-28T20:48:06.233Z,98995.94
2022-09-28T20:50:33.881Z,98996.41
2022-09-28T20:53:01.563Z,98999.72
2022-09-28T20:55:28.689Z,99002.16
2022-09-28T20:57:55.780Z,99002.28
2022-09-28T21:00:23.046Z,98999.22
2022-09-28T21:02:53.392Z,99003.75
2022-09-28T21:05:20.474Z,99000.19
2022-09-28T21:07:47.557Z,99004.34
2022-09-28T21:10:14.758Z,99007.03
2022-09-28T21:12:41.933Z,99007.75
2022-09-28T21:15:09.292Z,99005.56
2022-09-28T21:17:36.424Z,99013.63
2022-09-28T21:20:04.366Z,99005.16
2022-09-28T21:22:31.400Z,98999.06
2022-09-28T21:24:58.529Z,98999.94
2022-09-28T21:27:25.734Z,99001.38
2022-09-28T21:29:52.941Z,98997.56
2022-09-28T21:32:20.034Z,99000.75
2022-09-28T21:34:47.203Z,98983.88
2022-09-28T21:37:14.334Z,98990.72
2022-09-28T21:39:41.510Z,98992.91
2022-09-28T21:42:08.545Z,99002.59
2022-09-28T21:44:35.792Z,98992.56
2022-09-28T21:47:02.902Z,98999.81
2022-09-28T21:49:30.025Z,98999.41
2022-09-28T21:51:57.139Z,98995.22
2022-09-28T21:54:24.208Z,98996.41
2022-09-28T21:56:51.727Z,98999.94
2022-09-28T21:59:18.861Z,98991.19
2022-09-28T22:01:48.767Z,98988.75
2022-09-28T22:04:15.887Z,98986.94
2022-09-28T22:06:42.954Z,98987.81
2022-09-28T22:09:13.139Z,98986.56
2022-09-28T22:11:40.431Z,98990.06
2022-09-28T22:14:09.597Z,98989.84
2022-09-28T22:16:38.586Z,98996.75
2022-09-28T22:19:05.738Z,99000.91
2022-09-28T22:21:34.609Z,98997.50
2022-09-28T22:24:02.930Z,99004.03
2022-09-28T22:26:31.715Z,99001.81
2022-09-28T22:28:59.871Z,99010.59
2022-09-28T22:31:28.784Z,99014.50
2022-09-28T22:33:56.539Z,99005.78
2022-09-28T22:36:23.631Z,99003.16
2022-09-28T22:38:50.728Z,98988.16
2022-09-28T22:41:20.463Z,98998.41
2022-09-28T22:43:48.315Z,98991.66
2022-09-28T22:46:16.978Z,98996.91
2022-09-28T22:48:47.923Z,98989.72
2022-09-28T22:51:15.767Z,98992.69
2022-09-28T22:53:43.303Z,98988.63
2022-09-28T22:56:13.560Z,98976.41
2022-09-28T22:58:43.226Z,98981.16
2022-09-28T23:01:11.941Z,98980.38
2022-09-28T23:03:42.692Z,98987.09
2022-09-28T23:06:10.901Z,98990.22
2022-09-28T23:08:38.539Z,98984.13
2022-09-28T23:11:06.169Z,98986.34
2022-09-28T23:13:33.643Z,98988.81
2022-09-28T23:16:02.378Z,98990.06
2022-09-28T23:18:31.423Z,98985.22
2022-09-28T23:20:59.914Z,98996.16
2022-09-28T23:23:27.117Z,98999.69
2022-09-28T23:25:54.645Z,99003.69
2022-09-28T23:28:22.554Z,99014.91
2022-09-28T23:30:49.785Z,99003.06
2022-09-28T23:33:17.707Z,98994.91
2022-09-28T23:35:45.223Z,99004.47
2022-09-28T23:38:13.656Z,98995.56
2022-09-28T23:40:41.322Z,98988.06
2022-09-28T23:43:08.758Z,98992.47
2022-09-28T23:45:36.097Z,98990.00
2022-09-28T23:48:03.657Z,98986.75
2022-09-28T23:50:30.714Z,98987.44
2022-09-28T23:52:57.792Z,98986.22
2022-09-28T23:55:24.835Z,98989.31
2022-09-28T23:57:55.463Z,98987.91
